createdAt,value
2023-02-11T00:01:16.658Z,-0.85
2023-02-11T00:04:19.595Z,-0.99
2023-02-11T00:07:22.545Z,-0.95
2023-02-11T00:10:25.440Z,-1.11
2023-02-11T00:13:28.465Z,-1.05
2023-02-11T00:16:32.574Z,-0.97
2023-02-11T00:19:35.540Z,-1.04
2023-02-11T00:22:38.493Z,-1.03
2023-02-11T00:25:43.270Z,-1.16
2023-02-11T00:28:47.265Z,-1.01
2023-02-11T00:31:51.913Z,-1.11
2023-02-11T00:34:55.472Z,-1.05
2023-02-11T00:38:01.350Z,-0.90
2023-02-11T00:41:05.075Z,-1.11
2023-02-11T00:44:07.926Z,-1.06
2023-02-11T00:47:10.746Z,-0.87
2023-02-11T00:50:13.878Z,-0.91
2023-02-11T00:53:16.801Z,-1.16
2023-02-11T00:56:20.562Z,-1.13
2023-02-11T00:59:23.469Z,-1.04
2023-02-11T01:02:26.438Z,-1.13
2023-02-11T01:05:35.619Z,-0.91
2023-02-11T01:08:39.918Z,-1.06
2023-02-11T01:11:44.525Z,-1.13
2023-02-11T01:14:47.803Z,-1.02
2023-02-11T01:17:51.067Z,-1.07
2023-02-11T01:20:55.983Z,-1.20
2023-02-11T01:23:59.394Z,-1.25
2023-02-11T01:27:02.278Z,-1.22
2023-02-11T01:30:07.042Z,-1.20
2023-02-11T01:33:09.967Z,-1.18
2023-02-11T01:36:13.419Z,-1.10
2023-02-11T01:39:16.772Z,-1.14
2023-02-11T01:42:24.212Z,-1.21
2023-02-11T01:45:46.272Z,-1.19
2023-02-11T01:48:55.481Z,-1.34
2023-02-11T01:52:13.408Z,-1.39
2023-02-11T01:55:35.850Z,-1.55
2023-02-11T01:58:42.382Z,-1.63
2023-02-11T02:01:56.290Z,-1.51
2023-02-11T02:05:28.816Z,-1.56
2023-02-11T02:08:38.982Z,-1.59
2023-02-11T02:11:44.908Z,-1.54
2023-02-11T02:14:47.751Z,-1.64
2023-02-11T02:18:01.726Z,-1.69
2023-02-11T02:21:36.498Z,-1.56
2023-02-11T02:25:01.204Z,-1.52
2023-02-11T02:28:44.546Z,-1.70
2023-02-11T02:31:55.154Z,-1.58
2023-02-11T02:35:26.803Z,-1.44
2023-02-11T02:38:38.778Z,-1.52
2023-02-11T02:41:42.846Z,-1.61
2023-02-11T02:44:53.532Z,-1.79
2023-02-11T02:47:56.727Z,-1.75
2023-02-11T02:51:32.998Z,-1.76
2023-02-11T02:54:54.329Z,-1.75
2023-02-11T02:58:17.449Z,-1.83
2023-02-11T03:01:26.558Z,-1.74
2023-02-11T03:04:45.169Z,-1.79
2023-02-11T03:07:56.067Z,-1.73
2023-02-11T03:11:01.643Z,-1.69
2023-02-11T03:14:11.327Z,-1.76
2023-02-11T03:17:15.439Z,-1.84
2023-02-11T03:20:22.065Z,-1.86
2023-02-11T03:23:37.853Z,-1.92
2023-02-11T03:26:46.778Z,-1.88
2023-02-11T03:30:18.778Z,-2.06
2023-02-11T03:33:30.691Z,-2.05
2023-02-11T03:36:46.234Z,-2.01
2023-02-11T03:39:56.233Z,-1.92
2023-02-11T03:43:23.224Z,-1.82
2023-02-11T03:46:38.202Z,-1.91
2023-02-11T03:49:45.140Z,-1.83
2023-02-11T03:52:50.020Z,-1.67
2023-02-11T03:55:55.391Z,-1.57
2023-02-11T03:58:58.410Z,-1.66
2023-02-11T04:02:01.304Z,-1.62
2023-02-11T04:05:06.777Z,-1.63
2023-02-11T04:08:09.817Z,-1.57
2023-02-11T04:11:12.894Z,-1.53
2023-02-11T04:14:16.227Z,-1.50
2023-02-11T04:17:19.294Z,-1.49
2023-02-11T04:20:22.174Z,-1.58
2023-02-11T04:23:25.013Z,-1.45
2023-02-11T04:26:27.966Z,-1.40
2023-02-11T04:29:32.132Z,-1.42
2023-02-11T04:32:38.356Z,-1.24
2023-02-11T04:35:41.551Z,-1.31
2023-02-11T04:38:44.501Z,-1.21
2023-02-11T04:41:47.418Z,-1.22
2023-02-11T04:44:50.379Z,-1.16
2023-02-11T04:47:53.264Z,-0.95
2023-02-11T04:50:56.326Z,-0.91
2023-02-11T04:53:59.390Z,-0.92
2023-02-11T04:57:05.633Z,-0.87
2023-02-11T05:00:10.085Z,-0.80
2023-02-11T05:03:13.488Z,-0.82
2023-02-11T05:06:16.258Z,-0.88
2023-02-11T05:09:19.241Z,-1.05
2023-02-11T05:12:22.158Z,-0.86
2023-02-11T05:15:25.045Z,-0.93
2023-02-11T05:18:28.228Z,-0.97
2023-02-11T05:21:31.384Z,-0.92
2023-02-11T05:24:34.647Z,-0.90
2023-02-11T05:27:37.742Z,-0.93
2023-02-11T05:30:40.866Z,-0.99
2023-02-11T05:33:43.951Z,-1.06
2023-02-11T05:36:46.885Z,-1.20
2023-02-11T05:39:49.925Z,-1.38
2023-02-11T05:42:52.886Z,-1.40
2023-02-11T05:45:55.812Z,-1.50
2023-02-11T05:48:58.974Z,-1.50
2023-02-11T05:52:01.914Z,-1.54
2023-02-11T05:55:05.251Z,-1.55
2023-02-11T05:58:10.975Z,-1.55
2023-02-11T06:01:13.970Z,-1.68
2023-02-11T06:04:16.910Z,-1.71
2023-02-11T06:07:19.982Z,-1.62
2023-02-11T06:10:22.869Z,-1.71
2023-02-11T06:13:25.782Z,-1.68
2023-02-11T06:16:28.807Z,-1.68
2023-02-11T06:19:31.875Z,-1.53
2023-02-11T06:22:35.122Z,-1.30
2023-02-11T06:25:38.081Z,-0.97
2023-02-11T06:28:42.067Z,-0.50
2023-02-11T06:31:45.250Z,-0.51
2023-02-11T06:34:48.350Z,-0.38
2023-02-11T06:37:53.958Z,-0.23
2023-02-11T06:40:57.129Z,-0.16
2023-02-11T06:43:59.992Z,0.12
2023-02-11T06:47:02.930Z,0.07
2023-02-11T06:50:08.120Z,0.09
2023-02-11T06:53:11.033Z,0.22
2023-02-11T06:56:20.281Z,0.19
2023-02-11T06:59:23.239Z,0.35
2023-02-11T07:02:26.403Z,0.23
2023-02-11T07:05:29.701Z,0.46
2023-02-11T07:08:37.220Z,0.42
2023-02-11T07:11:40.051Z,0.64
2023-02-11T07:14:43.238Z,0.58
2023-02-11T07:17:46.163Z,0.61
2023-02-11T07:20:49.041Z,0.72
2023-02-11T07:23:52.198Z,0.84
2023-02-11T07:26:55.160Z,0.87
2023-02-11T07:29:58.066Z,0.97
2023-02-11T07:33:01.027Z,1.10
2023-02-11T07:36:05.305Z,1.13
2023-02-11T07:39:11.024Z,1.20
2023-02-11T07:42:14.183Z,1.15
2023-02-11T07:45:18.278Z,1.16
2023-02-11T07:48:21.308Z,1.22
2023-02-11T07:51:27.673Z,1.19
2023-02-11T07:54:30.946Z,1.31
2023-02-11T07:57:33.931Z,1.47
2023-02-11T08:00:37.226Z,1.74
2023-02-11T08:03:42.909Z,1.71
2023-02-11T08:06:46.026Z,1.88
2023-02-11T08:09:49.143Z,2.17
2023-02-11T08:12:52.157Z,2.36
2023-02-11T08:15:57.838Z,2.69
2023-02-11T08:19:04.673Z,2.93
2023-02-11T08:22:07.803Z,3.04
2023-02-11T08:25:13.215Z,3.27
2023-02-11T08:28:16.061Z,3.53
2023-02-11T08:31:28.225Z,3.71
2023-02-11T08:34:31.268Z,3.77
2023-02-11T08:37:34.667Z,3.91
2023-02-11T08:40:37.570Z,4.09
2023-02-11T08:43:44.450Z,3.97
2023-02-11T08:46:47.819Z,3.83
2023-02-11T08:49:50.734Z,3.81
2023-02-11T08:52:53.630Z,3.73
2023-02-11T08:55:56.697Z,3.49
2023-02-11T08:58:59.722Z,3.25
2023-02-11T09:02:04.991Z,3.08
2023-02-11T09:05:09.215Z,3.46
2023-02-11T09:08:12.444Z,3.59
2023-02-11T09:11:17.201Z,4.00
2023-02-11T09:14:22.565Z,4.61
2023-02-11T09:17:25.678Z,4.84
2023-02-11T09:20:28.788Z,5.27
2023-02-11T09:23:34.491Z,5.50
2023-02-11T09:26:38.324Z,6.09
2023-02-11T09:29:41.149Z,6.85
2023-02-11T09:32:44.269Z,7.49
2023-02-11T09:35:47.498Z,7.80
2023-02-11T09:38:50.897Z,7.56
2023-02-11T09:42:03.274Z,7.77
2023-02-11T09:45:15.958Z,7.99
2023-02-11T09:48:21.999Z,7.69
2023-02-11T09:51:53.874Z,7.48
2023-02-11T09:55:02.758Z,7.68
2023-02-11T09:58:16.408Z,8.06
2023-02-11T10:02:00.778Z,8.24
2023-02-11T10:05:06.472Z,8.53
2023-02-11T10:08:20.180Z,8.56
2023-02-11T10:11:41.041Z,8.76
2023-02-11T10:15:15.900Z,8.62
2023-02-11T10:19:05.389Z,8.60
2023-02-11T10:22:25.718Z,8.52
2023-02-11T10:25:35.410Z,8.36
2023-02-11T10:28:40.555Z,8.47
2023-02-11T10:31:46.434Z,8.33
2023-02-11T10:35:00.031Z,8.22
2023-02-11T10:38:03.559Z,8.09
2023-02-11T10:41:07.375Z,7.93
2023-02-11T10:44:33.703Z,8.02
2023-02-11T10:47:39.268Z,7.99
2023-02-11T10:50:42.483Z,8.12
2023-02-11T10:53:47.542Z,8.43
2023-02-11T10:56:58.774Z,8.61
2023-02-11T11:00:25.920Z,8.43
2023-02-11T11:03:40.306Z,8.44
2023-02-11T11:06:47.010Z,8.65
2023-02-11T11:09:55.645Z,8.90
2023-02-11T11:12:58.645Z,9.01
2023-02-11T11:16:22.231Z,9.21
2023-02-11T11:19:25.886Z,9.52
2023-02-11T11:22:29.237Z,9.33
2023-02-11T11:25:32.303Z,9.67
2023-02-11T11:28:47.059Z,9.27
2023-02-11T11:32:04.463Z,8.88
2023-02-11T11:35:23.534Z,8.69
2023-02-11T11:38:29.451Z,8.71
2023-02-11T11:41:34.664Z,8.36
2023-02-11T11:44:39.915Z,8.55
2023-02-11T11:48:20.922Z,8.74
2023-02-11T11:51:28.434Z,8.85
2023-02-11T11:54:32.088Z,8.91
2023-02-11T11:57:38.600Z,8.76
2023-02-11T12:01:15.840Z,8.74
2023-02-11T12:04:27.984Z,8.77
2023-02-11T12:07:44.039Z,8.91
2023-02-11T12:10:46.813Z,9.01
2023-02-11T12:14:04.689Z,9.02
2023-02-11T12:17:16.845Z,9.00
2023-02-11T12:20:26.338Z,8.84
2023-02-11T12:23:58.039Z,8.59
2023-02-11T12:27:10.938Z,8.23
2023-02-11T12:30:28.765Z,8.10
2023-02-11T12:34:04.902Z,7.76
2023-02-11T12:37:32.879Z,7.56
2023-02-11T12:40:55.472Z,7.29
2023-02-11T12:43:59.273Z,7.07
2023-02-11T12:47:25.082Z,7.06
2023-02-11T12:51:14.520Z,6.93
2023-02-11T12:54:54.484Z,7.01
2023-02-11T12:58:01.916Z,6.90
2023-02-11T13:01:18.789Z,6.88
2023-02-11T13:04:37.696Z,6.92
2023-02-11T13:07:45.950Z,6.63
2023-02-11T13:10:59.819Z,6.65
2023-02-11T13:14:41.306Z,6.57
2023-02-11T13:17:58.413Z,6.43
2023-02-11T13:21:16.960Z,6.64
2023-02-11T13:24:26.553Z,6.68
2023-02-11T13:27:51.356Z,6.72
2023-02-11T13:31:05.016Z,6.67
2023-02-11T13:34:47.988Z,6.62
2023-02-11T13:37:51.336Z,6.47
2023-02-11T13:41:06.187Z,6.51
2023-02-11T13:44:09.127Z,6.40
2023-02-11T13:47:30.439Z,6.35
2023-02-11T13:50:39.758Z,6.20
2023-02-11T13:53:56.975Z,6.17
2023-02-11T13:57:23.439Z,6.00
2023-02-11T14:00:35.556Z,6.30
2023-02-11T14:04:18.289Z,6.33
2023-02-11T14:07:51.570Z,6.38
2023-02-11T14:11:00.828Z,6.28
2023-02-11T14:14:21.967Z,6.25
2023-02-11T14:17:31.580Z,6.13
2023-02-11T14:20:45.450Z,6.11
2023-02-11T14:23:51.503Z,6.05
2023-02-11T14:27:01.661Z,6.03
2023-02-11T14:30:26.481Z,6.10
2023-02-11T14:33:44.168Z,5.97
2023-02-11T14:36:53.019Z,5.96
2023-02-11T14:40:16.006Z,5.98
2023-02-11T14:43:24.561Z,5.93
2023-02-11T14:46:33.016Z,5.93
2023-02-11T14:49:39.890Z,5.91
2023-02-11T14:52:44.426Z,5.92
2023-02-11T14:55:52.589Z,5.90
2023-02-11T14:58:55.917Z,5.88
2023-02-11T15:01:59.440Z,5.87
2023-02-11T15:05:28.096Z,5.84
2023-02-11T15:08:33.658Z,5.82
2023-02-11T15:11:42.703Z,5.85
2023-02-11T15:14:53.141Z,5.77
2023-02-11T15:17:59.621Z,5.73
2023-02-11T15:21:03.138Z,5.64
2023-02-11T15:24:23.949Z,5.63
2023-02-11T15:27:26.920Z,5.68
2023-02-11T15:30:34.210Z,5.68
2023-02-11T15:33:37.280Z,5.67
2023-02-11T15:36:40.529Z,5.83
2023-02-11T15:39:45.958Z,5.75
2023-02-11T15:42:58.089Z,5.80
2023-02-11T15:46:02.110Z,5.63
2023-02-11T15:49:06.574Z,5.63
2023-02-11T15:52:09.639Z,5.60
2023-02-11T15:55:15.999Z,5.69
2023-02-11T15:58:20.017Z,5.64
2023-02-11T16:01:35.746Z,5.53
2023-02-11T16:04:39.148Z,5.43
2023-02-11T16:07:47.817Z,5.39
2023-02-11T16:11:02.626Z,5.43
2023-02-11T16:14:21.292Z,5.38
2023-02-11T16:17:30.439Z,5.37
2023-02-11T16:20:34.313Z,5.47
2023-02-11T16:23:42.103Z,5.38
2023-02-11T16:26:49.728Z,5.36
2023-02-11T16:29:53.342Z,5.35
2023-02-11T16:32:57.309Z,5.51
2023-02-11T16:36:02.245Z,5.46
2023-02-11T16:39:06.064Z,5.41
2023-02-11T16:42:11.601Z,5.41
2023-02-11T16:45:15.621Z,5.46
2023-02-11T16:48:20.163Z,5.55
2023-02-11T16:51:23.595Z,5.39
2023-02-11T16:54:27.753Z,5.33
2023-02-11T16:57:31.209Z,5.41
2023-02-11T17:00:34.512Z,5.43
2023-02-11T17:03:40.634Z,5.34
2023-02-11T17:06:44.665Z,5.28
2023-02-11T17:09:47.864Z,5.23
2023-02-11T17:12:51.189Z,5.19
2023-02-11T17:15:54.734Z,5.13
2023-02-11T17:18:58.501Z,5.07
2023-02-11T17:22:01.813Z,5.11
2023-02-11T17:25:04.949Z,5.11
2023-02-11T17:28:09.785Z,5.13
2023-02-11T17:31:13.331Z,5.31
2023-02-11T17:34:17.419Z,5.33
2023-02-11T17:37:21.154Z,5.27
2023-02-11T17:40:24.443Z,5.23
2023-02-11T17:43:28.391Z,5.13
2023-02-11T17:46:34.743Z,5.28
2023-02-11T17:49:38.464Z,5.15
2023-02-11T17:52:41.804Z,5.12
2023-02-11T17:55:44.934Z,5.10
2023-02-11T17:58:48.331Z,5.07
2023-02-11T18:01:51.522Z,5.14
2023-02-11T18:04:58.917Z,5.22
2023-02-11T18:08:02.816Z,5.15
2023-02-11T18:11:10.113Z,5.17
2023-02-11T18:14:13.414Z,5.22
2023-02-11T18:17:17.045Z,5.33
2023-02-11T18:20:20.390Z,5.23
2023-02-11T18:23:23.544Z,5.25
2023-02-11T18:26:28.166Z,5.16
2023-02-11T18:29:31.516Z,5.19
2023-02-11T18:32:37.231Z,5.14
2023-02-11T18:35:43.801Z,5.09
2023-02-11T18:38:47.203Z,4.99
2023-02-11T18:41:54.547Z,4.96
2023-02-11T18:44:59.806Z,4.81
2023-02-11T18:48:05.390Z,4.67
2023-02-11T18:51:15.939Z,4.79
2023-02-11T18:54:19.026Z,4.82
2023-02-11T18:57:22.328Z,4.66
2023-02-11T19:00:25.583Z,4.56
2023-02-11T19:03:28.532Z,4.44
2023-02-11T19:06:35.561Z,4.42
2023-02-11T19:09:41.417Z,4.46
2023-02-11T19:12:44.719Z,4.33
2023-02-11T19:15:47.990Z,4.27
2023-02-11T19:18:51.270Z,4.10
2023-02-11T19:21:56.019Z,4.14
2023-02-11T19:24:59.154Z,4.27
2023-02-11T19:28:03.403Z,4.29
2023-02-11T19:31:10.000Z,4.35
2023-02-11T19:34:16.048Z,4.64
2023-02-11T19:37:19.659Z,4.75
2023-02-11T19:40:25.710Z,4.87
2023-02-11T19:43:29.172Z,5.19
2023-02-11T19:46:37.610Z,5.38
2023-02-11T19:49:40.882Z,5.40
2023-02-11T19:52:44.731Z,5.65
2023-02-11T19:55:48.902Z,5.79
2023-02-11T19:58:52.066Z,5.82
2023-02-11T20:01:55.367Z,5.89
2023-02-11T20:04:58.531Z,5.89
2023-02-11T20:08:01.426Z,5.94
2023-02-11T20:11:06.931Z,5.93
2023-02-11T20:14:12.866Z,5.79
2023-02-11T20:17:16.141Z,5.84
2023-02-11T20:20:19.547Z,5.83
2023-02-11T20:23:24.368Z,5.76
2023-02-11T20:26:30.729Z,5.73
2023-02-11T20:29:36.691Z,5.60
2023-02-11T20:32:41.247Z,5.86
2023-02-11T20:35:44.178Z,6.06
2023-02-11T20:38:48.434Z,6.20
2023-02-11T20:41:53.400Z,6.30
2023-02-11T20:44:56.565Z,6.45
2023-02-11T20:47:59.773Z,6.32
2023-02-11T20:51:05.301Z,6.46
2023-02-11T20:54:12.879Z,6.38
2023-02-11T20:57:16.141Z,6.35
2023-02-11T21:00:19.545Z,6.37
2023-02-11T21:03:22.824Z,6.30
2023-02-11T21:06:30.793Z,6.29
2023-02-11T21:09:33.953Z,6.29
2023-02-11T21:12:37.254Z,6.40
2023-02-11T21:15:40.581Z,6.35
2023-02-11T21:18:44.237Z,6.33
2023-02-11T21:21:50.609Z,6.38
2023-02-11T21:24:53.730Z,6.47
2023-02-11T21:27:56.885Z,6.46
2023-02-11T21:31:00.080Z,6.52
2023-02-11T21:34:03.986Z,6.41
2023-02-11T21:37:07.243Z,6.41
2023-02-11T21:40:11.963Z,6.50
2023-02-11T21:43:15.234Z,6.55
2023-02-11T21:46:20.198Z,6.51
2023-02-11T21:49:23.364Z,6.49
2023-02-11T21:52:26.456Z,6.37
2023-02-11T21:55:29.593Z,6.30
2023-02-11T21:58:33.673Z,6.39
2023-02-11T22:01:37.317Z,6.44
2023-02-11T22:04:40.673Z,6.31
2023-02-11T22:07:43.828Z,6.32
2023-02-11T22:10:47.550Z,6.43
2023-02-11T22:13:55.630Z,6.32
2023-02-11T22:16:58.544Z,6.25
2023-02-11T22:20:01.650Z,6.23
2023-02-11T22:23:04.727Z,6.20
2023-02-11T22:26:13.097Z,6.18
2023-02-11T22:29:16.458Z,6.17
2023-02-11T22:32:19.588Z,6.13
2023-02-11T22:35:22.441Z,6.12
2023-02-11T22:38:25.735Z,6.22
2023-02-11T22:41:29.427Z,6.22
2023-02-11T22:44:32.312Z,6.18
2023-02-11T22:47:37.667Z,6.26
2023-02-11T22:50:40.899Z,6.27
2023-02-11T22:53:44.637Z,6.37
2023-02-11T22:56:51.073Z,6.26
2023-02-11T22:59:54.548Z,6.24
2023-02-11T23:02:57.524Z,6.27
2023-02-11T23:06:01.384Z,6.31
2023-02-11T23:09:08.857Z,6.43
2023-02-11T23:12:11.776Z,6.32
2023-02-11T23:15:14.650Z,6.30
2023-02-11T23:18:17.537Z,6.35
2023-02-11T23:21:23.890Z,6.30
2023-02-11T23:24:26.779Z,6.24
2023-02-11T23:27:29.607Z,6.33
2023-02-11T23:30:32.503Z,6.20
2023-02-11T23:33:35.418Z,6.14
2023-02-11T23:36:38.386Z,6.15
2023-02-11T23:39:42.210Z,6.30
2023-02-11T23:42:45.902Z,6.30
2023-02-11T23:45:49.056Z,6.26
2023-02-11T23:48:52.594Z,6.19
2023-02-11T23:51:55.641Z,6.14
2023-02-11T23:54:58.556Z,6.27
2023-02-11T23:58:01.439Z,6.31
